Time;durP1;ratioP1;P1;durP2;ratioP2;P2;SDS_P1;SDS_P2;PMS_P1;PMS_P2;Temp;Humidity;BMP_temperature;BMP_pressure;BME280_temperature;BME280_humidity;BME280_pressure;Samples;Min_cycle;Max_cycle;Signal;HPM_P1;HPM_P2
2022/01/18 00:01:53;;;;;;;32.45;4.80;;;9.70;99.90;;;;;;5034958;28;20128;-74
2022/01/18 00:04:20;;;;;;;39.55;4.90;;;9.70;99.90;;;;;;5046447;28;20057;-74
2022/01/18 00:06:49;;;;;;;38.72;6.15;;;9.70;99.90;;;;;;5038506;28;20038;-74
2022/01/18 00:09:19;;;;;;;38.55;4.75;;;9.80;99.90;;;;;;5034670;28;20083;-74
2022/01/18 00:11:58;;;;;;;35.30;4.63;;;9.80;99.90;;;;;;5034724;28;20026;-74
2022/01/18 00:14:27;;;;;;;44.72;6.43;;;9.80;99.90;;;;;;5034811;28;20033;-74
2022/01/18 00:17:04;;;;;;;31.02;4.47;;;9.80;99.90;;;;;;5034494;28;20435;-74
2022/01/18 00:19:33;;;;;;;40.30;5.13;;;9.80;99.90;;;;;;5034662;28;20032;-75
2022/01/18 00:22:11;;;;;;;38.97;5.43;;;9.80;99.90;;;;;;5034126;28;20464;-74
2022/01/18 00:24:39;;;;;;;41.05;5.97;;;9.70;99.90;;;;;;5034562;28;20109;-75
2022/01/18 00:27:12;;;;;;;41.88;5.28;;;9.70;99.90;;;;;;5034528;28;20029;-75
2022/01/18 00:29:43;;;;;;;37.83;6.30;;;9.70;99.90;;;;;;5034145;28;20025;-75
2022/01/18 00:34:39;;;;;;;44.00;6.38;;;9.70;99.90;;;;;;5034146;28;20384;-75
2022/01/18 00:39:31;;;;;;;43.03;5.95;;;9.60;99.90;;;;;;5034010;28;20021;-75
2022/01/18 00:41:57;;;;;;;37.78;4.85;;;9.60;99.90;;;;;;5033994;28;20097;-75
2022/01/18 00:44:23;;;;;;;44.20;5.10;;;9.60;99.90;;;;;;5033910;28;20025;-75
2022/01/18 00:46:48;;;;;;;38.53;5.60;;;9.60;99.90;;;;;;5033846;28;20025;-75
2022/01/18 00:49:14;;;;;;;41.55;6.75;;;9.60;99.90;;;;;;5033871;28;20113;-75
2022/01/18 00:51:41;;;;;;;36.33;5.97;;;9.60;99.90;;;;;;5033750;28;20487;-75
2022/01/18 00:54:09;;;;;;;44.85;5.70;;;9.60;99.90;;;;;;5033933;28;20448;-75
2022/01/18 00:56:39;;;;;;;46.50;6.70;;;9.70;99.90;;;;;;5033703;28;20101;-75
2022/01/18 00:59:05;;;;;;;42.83;6.30;;;9.70;99.90;;;;;;5033304;28;20021;-75
2022/01/18 01:01:31;;;;;;;49.58;6.95;;;9.60;99.90;;;;;;5038605;28;20105;-71
2022/01/18 01:04:02;;;;;;;50.38;6.80;;;9.60;99.90;;;;;;5042250;28;20025;-74
2022/01/18 01:06:28;;;;;;;47.55;6.57;;;9.50;99.90;;;;;;5034780;28;20029;-74
2022/01/18 01:08:54;;;;;;;35.42;5.88;;;9.50;99.90;;;;;;5033832;28;20026;-74
2022/01/18 01:11:20;;;;;;;49.22;6.22;;;9.40;99.90;;;;;;5033487;28;20091;-74
2022/01/18 01:13:49;;;;;;;41.45;5.72;;;9.50;99.90;;;;;;5033462;28;20037;-74
2022/01/18 01:33:08;;;;;;;40.38;6.20;;;9.50;99.90;;;;;;5033222;28;20071;-74
2022/01/18 01:35:40;;;;;;;45.50;8.02;;;9.50;99.90;;;;;;5033004;28;20457;-75
2022/01/18 01:43:30;;;;;;;38.78;6.68;;;9.50;99.90;;;;;;5033227;28;20439;-74
2022/01/18 01:45:56;;;;;;;36.00;7.25;;;9.50;99.90;;;;;;5033118;28;20125;-74
2022/01/18 01:48:23;;;;;;;42.33;7.28;;;9.50;99.90;;;;;;5033124;28;20033;-74
2022/01/18 01:53:18;;;;;;;44.00;7.75;;;9.40;99.90;;;;;;5032801;28;20393;-74
2022/01/18 01:55:45;;;;;;;50.67;8.95;;;9.30;99.90;;;;;;5033289;28;20026;-74
2022/01/18 01:58:11;;;;;;;45.08;8.07;;;9.30;99.90;;;;;;5033025;28;20031;-74
2022/01/18 02:00:50;;;;;;;46.00;7.40;;;9.30;99.90;;;;;;5034676;28;20158;-74
2022/01/18 02:03:16;;;;;;;42.53;8.18;;;9.20;99.90;;;;;;5035861;28;20385;-75
2022/01/18 02:05:43;;;;;;;40.50;7.55;;;9.20;99.90;;;;;;5032960;28;20021;-74
2022/01/18 02:08:08;;;;;;;44.35;8.50;;;9.20;99.90;;;;;;5033222;28;20025;-74
2022/01/18 02:10:39;;;;;;;45.33;7.32;;;9.30;99.90;;;;;;5035796;28;20496;-74
2022/01/18 02:13:05;;;;;;;45.08;8.05;;;9.30;99.90;;;;;;5036657;28;20049;-74
2022/01/18 02:15:32;;;;;;;43.83;7.90;;;9.30;99.90;;;;;;5037095;28;20029;-74
2022/01/18 02:23:29;;;;;;;40.05;7.03;;;9.30;99.90;;;;;;5036705;28;20033;-74
2022/01/18 02:25:56;;;;;;;38.50;7.97;;;9.30;99.90;;;;;;5036586;28;20530;-74
2022/01/18 02:28:24;;;;;;;41.45;7.32;;;9.40;99.90;;;;;;5036176;28;20473;-74
2022/01/18 02:30:50;;;;;;;38.67;7.25;;;9.40;99.90;;;;;;5036735;28;20021;-74
2022/01/18 02:33:16;;;;;;;36.47;6.95;;;9.40;99.90;;;;;;5036156;28;20124;-74
2022/01/18 02:35:43;;;;;;;43.95;7.78;;;9.40;99.90;;;;;;5036375;28;20112;-74
2022/01/18 02:38:09;;;;;;;50.45;8.07;;;9.40;99.90;;;;;;5036338;28;20535;-74
2022/01/18 02:40:34;;;;;;;49.80;8.07;;;9.40;99.90;;;;;;5036057;28;20033;-75
2022/01/18 02:45:50;;;;;;;34.63;7.30;;;9.40;99.90;;;;;;5036630;28;20559;-76
2022/01/18 02:48:16;;;;;;;33.05;7.57;;;9.40;99.90;;;;;;5036508;28;20030;-75
2022/01/18 02:50:42;;;;;;;52.70;7.82;;;9.40;99.90;;;;;;5036217;28;20025;-76
2022/01/18 02:53:07;;;;;;;35.67;6.47;;;9.40;99.90;;;;;;5036154;28;20049;-75
2022/01/18 02:55:33;;;;;;;42.75;8.23;;;9.40;99.90;;;;;;5036265;28;20124;-75
2022/01/18 02:58:05;;;;;;;43.45;8.40;;;9.40;99.90;;;;;;5037415;28;20406;-74
2022/01/18 03:00:43;;;;;;;45.55;8.38;;;9.40;99.90;;;;;;5038025;28;20110;-75
2022/01/18 03:03:16;;;;;;;37.40;7.60;;;9.40;99.90;;;;;;5035974;28;20393;-75
2022/01/18 03:05:45;;;;;;;44.40;8.63;;;9.40;99.90;;;;;;5035908;28;20032;-75
2022/01/18 03:08:12;;;;;;;43.55;9.43;;;9.40;99.90;;;;;;5035727;28;20022;-75
2022/01/18 03:10:40;;;;;;;48.58;9.60;;;9.50;99.90;;;;;;5035650;28;20535;-75
2022/01/18 03:13:06;;;;;;;44.97;8.90;;;9.40;99.90;;;;;;5035593;28;20042;-75
2022/01/18 03:15:33;;;;;;;49.45;8.80;;;9.40;99.90;;;;;;5035546;28;20056;-74
2022/01/18 03:18:00;;;;;;;35.58;8.32;;;9.30;99.90;;;;;;5035322;28;20040;-74
2022/01/18 03:20:27;;;;;;;44.33;8.60;;;9.40;99.90;;;;;;5034998;28;20108;-75
2022/01/18 03:22:53;;;;;;;52.55;9.75;;;9.40;99.90;;;;;;5035215;28;20021;-75
2022/01/18 03:25:28;;;;;;;50.33;9.20;;;9.40;99.90;;;;;;5035593;28;20029;-75
2022/01/18 03:28:05;;;;;;;45.10;9.43;;;9.40;99.90;;;;;;5035516;28;20440;-75
2022/01/18 03:30:33;;;;;;;44.47;8.95;;;9.40;99.90;;;;;;5035675;28;20026;-75
2022/01/18 03:32:59;;;;;;;35.97;8.02;;;9.40;99.90;;;;;;5035131;28;20036;-75
2022/01/18 03:35:25;;;;;;;38.70;7.95;;;9.40;99.90;;;;;;5035467;28;20029;-75
2022/01/18 03:37:51;;;;;;;38.25;7.63;;;9.40;99.90;;;;;;5035195;28;20029;-75
2022/01/18 03:40:17;;;;;;;40.92;7.72;;;9.40;99.90;;;;;;5035165;28;20475;-75
2022/01/18 03:42:45;;;;;;;36.60;6.05;;;9.40;99.90;;;;;;5034870;28;20104;-75
2022/01/18 03:45:16;;;;;;;30.38;5.75;;;9.40;99.90;;;;;;5035179;28;20082;-75
2022/01/18 03:47:42;;;;;;;33.15;5.35;;;9.40;99.90;;;;;;5034983;28;20029;-75
2022/01/18 03:50:10;;;;;;;31.73;5.55;;;9.50;99.90;;;;;;5035329;28;20100;-76
2022/01/18 03:52:35;;;;;;;32.70;5.47;;;9.50;99.90;;;;;;5034659;28;20041;-75
2022/01/18 03:55:01;;;;;;;29.15;4.32;;;9.40;99.90;;;;;;5035318;28;20109;-74
2022/01/18 03:57:27;;;;;;;29.48;4.50;;;9.40;99.90;;;;;;5037661;28;20057;-75
2022/01/18 03:59:52;;;;;;;36.42;5.38;;;9.50;99.90;;;;;;5035440;28;20025;-75
2022/01/18 04:02:18;;;;;;;26.25;5.18;;;9.40;99.90;;;;;;5034589;28;20022;-75
2022/01/18 04:04:44;;;;;;;30.45;4.70;;;9.40;99.90;;;;;;5034970;28;20029;-75
2022/01/18 04:07:10;;;;;;;34.00;4.90;;;9.40;99.90;;;;;;5034974;28;20045;-75
2022/01/18 04:09:35;;;;;;;38.47;5.53;;;9.40;99.90;;;;;;5034753;28;20084;-75
2022/01/18 04:12:02;;;;;;;37.25;5.95;;;9.40;99.90;;;;;;5034795;28;20037;-75
2022/01/18 04:14:28;;;;;;;30.67;5.47;;;9.40;99.90;;;;;;5034352;28;20025;-74
2022/01/18 04:27:20;;;;;;;32.15;6.30;;;9.40;99.90;;;;;;5033343;28;20038;-75
2022/01/18 04:29:46;;;;;;;35.42;7.03;;;9.40;99.90;;;;;;5034593;28;20029;-75
2022/01/18 04:32:11;;;;;;;36.03;6.60;;;9.40;99.90;;;;;;5034159;28;20030;-75
2022/01/18 04:34:38;;;;;;;35.53;7.10;;;9.40;99.90;;;;;;5034044;28;20088;-75
2022/01/18 04:37:04;;;;;;;29.42;6.45;;;9.40;99.90;;;;;;5034383;28;20104;-76
2022/01/18 04:39:36;;;;;;;33.55;6.43;;;9.30;99.90;;;;;;5033600;28;20021;-75
2022/01/18 04:42:02;;;;;;;29.35;5.82;;;9.30;99.90;;;;;;5034294;28;20033;-75
2022/01/18 04:49:56;;;;;;;28.35;5.75;;;9.30;99.90;;;;;;5033948;28;20044;-75
2022/01/18 04:52:21;;;;;;;28.33;5.95;;;9.20;99.90;;;;;;5033948;28;20392;-75
2022/01/18 04:54:57;;;;;;;33.13;6.75;;;9.20;99.90;;;;;;5038832;28;20029;-72
2022/01/18 04:59:48;;;;;;;27.38;5.82;;;9.10;99.90;;;;;;5033670;28;20040;-74
2022/01/18 05:02:14;;;;;;;31.38;7.70;;;9.10;99.90;;;;;;5033514;28;20033;-75
2022/01/18 05:04:42;;;;;;;25.52;5.70;;;9.10;99.90;;;;;;5033774;28;20029;-75
2022/01/18 05:07:11;;;;;;;26.10;5.35;;;9.00;99.90;;;;;;5033598;28;20035;-75
2022/01/18 05:09:37;;;;;;;25.33;5.95;;;9.10;99.90;;;;;;5033683;28;20034;-74
2022/01/18 05:12:09;;;;;;;28.63;5.53;;;9.10;99.90;;;;;;5033522;28;20038;-75
2022/01/18 05:14:36;;;;;;;25.38;5.95;;;9.00;99.90;;;;;;5033472;28;20035;-75
2022/01/18 05:17:36;;;;;;;23.05;5.53;;;9.00;99.90;;;;;;5033645;28;20109;-74
2022/01/18 05:20:26;;;;;;;30.63;6.00;;;9.00;99.90;;;;;;5033343;28;20041;-75
2022/01/18 05:23:01;;;;;;;24.20;5.80;;;9.10;99.90;;;;;;5033102;28;20029;-76
2022/01/18 05:25:28;;;;;;;25.63;5.80;;;9.10;99.90;;;;;;5033595;28;20026;-76
2022/01/18 05:27:54;;;;;;;20.63;5.10;;;9.10;99.90;;;;;;5033686;28;20033;-75
2022/01/18 05:30:20;;;;;;;26.15;5.32;;;9.10;99.90;;;;;;5033615;28;20021;-75
2022/01/18 05:32:46;;;;;;;21.90;5.22;;;9.10;99.90;;;;;;5033046;28;20481;-76
2022/01/18 05:35:11;;;;;;;34.58;5.82;;;9.10;99.90;;;;;;5033623;28;20028;-76
2022/01/18 05:37:37;;;;;;;19.27;5.20;;;9.10;99.90;;;;;;5033644;28;20428;-76
2022/01/18 05:40:03;;;;;;;21.65;5.53;;;9.20;99.90;;;;;;5032873;28;20024;-76
2022/01/18 05:42:28;;;;;;;21.75;4.78;;;9.20;99.90;;;;;;5033574;28;20030;-75
2022/01/18 05:44:54;;;;;;;20.85;5.88;;;9.20;99.90;;;;;;5035159;28;20528;-75
2022/01/18 05:47:20;;;;;;;25.27;6.28;;;9.20;99.90;;;;;;5037312;28;20023;-75
2022/01/18 05:49:45;;;;;;;25.27;5.45;;;9.20;99.90;;;;;;5037530;28;20022;-75
2022/01/18 05:52:14;;;;;;;22.02;5.00;;;9.20;99.90;;;;;;5044363;28;20168;-72
2022/01/18 05:54:39;;;;;;;22.33;5.38;;;9.20;99.90;;;;;;5044361;28;20025;-74
2022/01/18 05:57:05;;;;;;;22.90;5.45;;;9.10;99.90;;;;;;5037692;28;20033;-75
2022/01/18 05:59:36;;;;;;;19.83;5.05;;;9.10;99.90;;;;;;5037360;28;20087;-75
2022/01/18 06:02:13;;;;;;;17.70;5.22;;;9.10;99.90;;;;;;5036724;28;20095;-75
2022/01/18 06:07:23;;;;;;;20.25;4.93;;;9.00;99.90;;;;;;5037012;28;20079;-75
2022/01/18 06:09:49;;;;;;;16.63;4.78;;;8.90;99.90;;;;;;5036897;28;20029;-75
2022/01/18 06:12:15;;;;;;;18.73;4.63;;;8.90;99.90;;;;;;5036755;28;20033;-75
2022/01/18 06:14:41;;;;;;;15.48;4.53;;;8.90;99.90;;;;;;5037238;28;20075;-75
2022/01/18 06:17:07;;;;;;;16.63;4.00;;;8.80;99.90;;;;;;5036742;28;20025;-76
2022/01/18 06:19:32;;;;;;;11.48;3.60;;;8.80;99.90;;;;;;5036733;28;20021;-76
2022/01/18 06:21:58;;;;;;;16.35;4.32;;;8.90;99.90;;;;;;5036719;28;20029;-75
2022/01/18 06:24:24;;;;;;;11.63;4.18;;;8.90;99.90;;;;;;5036801;28;20080;-76
2022/01/18 06:26:49;;;;;;;12.63;3.85;;;8.90;99.90;;;;;;5036750;28;20024;-74
2022/01/18 06:29:15;;;;;;;17.80;4.88;;;8.90;99.90;;;;;;5036751;28;20469;-75
2022/01/18 06:31:41;;;;;;;17.92;4.97;;;8.90;99.90;;;;;;5036420;28;20022;-74
2022/01/18 06:34:06;;;;;;;12.98;3.80;;;8.90;99.90;;;;;;5036593;28;20083;-76
2022/01/18 06:36:32;;;;;;;15.52;4.50;;;9.00;99.90;;;;;;5036587;28;20018;-79
2022/01/18 06:38:57;;;;;;;22.67;5.20;;;9.00;99.90;;;;;;5037122;28;20099;-76
2022/01/18 06:41:23;;;;;;;22.42;4.30;;;9.00;99.90;;;;;;5036600;28;20021;-75
2022/01/18 06:43:49;;;;;;;24.48;5.78;;;9.00;99.90;;;;;;5036281;28;20028;-74
2022/01/18 06:46:15;;;;;;;13.70;4.65;;;9.10;99.90;;;;;;5036281;28;20075;-74
2022/01/18 06:48:44;;;;;;;21.35;4.43;;;9.10;99.90;;;;;;5034672;28;20053;-74
2022/01/18 06:51:10;;;;;;;20.40;5.40;;;9.20;99.90;;;;;;5036570;28;20037;-73
2022/01/18 06:53:43;;;;;;;23.55;5.20;;;9.20;99.90;;;;;;5036446;28;20503;-74
2022/01/18 06:56:09;;;;;;;;;;;9.30;99.90;;;;;;5035743;28;20026;-73
2022/01/18 06:58:38;;;;;;;28.90;7.90;;;9.30;99.90;;;;;;5035182;28;19915;-73
2022/01/18 07:01:04;;;;;;;22.98;8.05;;;9.40;99.90;;;;;;5032734;28;20080;-73
2022/01/18 07:03:29;;;;;;;33.03;10.77;;;9.40;99.90;;;;;;5035661;28;20069;-74
2022/01/18 07:05:56;;;;;;;33.03;11.18;;;9.40;99.90;;;;;;5035574;28;20460;-74
2022/01/18 07:08:21;;;;;;;34.55;11.40;;;9.40;99.90;;;;;;5035359;28;20037;-74
2022/01/18 07:10:47;;;;;;;37.65;10.23;;;9.40;99.90;;;;;;5035358;28;20034;-74
2022/01/18 07:13:14;;;;;;;29.42;11.43;;;9.40;99.90;;;;;;5033958;28;20065;-74
2022/01/18 07:15:40;;;;;;;28.33;10.88;;;9.40;99.90;;;;;;5035149;28;20017;-75
2022/01/18 07:18:07;;;;;;;30.45;10.70;;;9.40;99.90;;;;;;5034979;28;20477;-78
2022/01/18 07:20:33;;;;;;;30.33;9.98;;;9.40;99.90;;;;;;5034821;28;20037;-76
2022/01/18 07:22:59;;;;;;;24.90;9.68;;;9.30;99.90;;;;;;5034949;28;20025;-78
2022/01/18 07:25:26;;;;;;;21.50;9.25;;;9.30;99.90;;;;;;5033730;28;20567;-77
2022/01/18 07:27:51;;;;;;;28.33;11.20;;;9.30;99.90;;;;;;5033560;28;20240;-77
2022/01/18 07:30:17;;;;;;;25.08;10.70;;;9.30;99.90;;;;;;5033149;28;20025;-77
2022/01/18 07:32:43;;;;;;;21.20;8.40;;;9.30;99.90;;;;;;5033675;28;20044;-76
2022/01/18 07:35:11;;;;;;;20.75;8.52;;;9.20;99.90;;;;;;5033485;28;20096;-77
2022/01/18 07:37:37;;;;;;;17.15;7.57;;;9.20;99.90;;;;;;5033676;28;20100;-77
2022/01/18 07:40:05;;;;;;;17.60;6.40;;;9.10;99.90;;;;;;5035372;28;20025;-76
2022/01/18 07:42:31;;;;;;;17.90;7.25;;;9.10;99.90;;;;;;5035405;28;20108;-75
2022/01/18 07:44:57;;;;;;;16.33;6.18;;;9.20;99.90;;;;;;5034713;28;20104;-76
2022/01/18 07:47:22;;;;;;;18.75;6.95;;;9.20;99.90;;;;;;5035508;28;20026;-76
2022/01/18 07:49:49;;;;;;;15.57;6.47;;;9.20;99.90;;;;;;5037312;28;20029;-75
2022/01/18 07:52:18;;;;;;;14.68;6.00;;;9.20;99.90;;;;;;5036774;28;20032;-75
2022/01/18 07:54:44;;;;;;;18.05;6.90;;;9.30;99.90;;;;;;5033586;28;20084;-75
2022/01/18 07:57:11;;;;;;;25.63;8.60;;;9.30;99.90;;;;;;5034394;28;20480;-78
2022/01/18 07:59:37;;;;;;;20.08;8.10;;;9.30;99.90;;;;;;5034543;28;20049;-76
2022/01/18 08:02:03;;;;;;;24.67;8.52;;;9.20;99.90;;;;;;5032704;28;20401;-76
2022/01/18 08:04:29;;;;;;;21.50;8.07;;;9.20;99.90;;;;;;5034053;28;20112;-76
2022/01/18 08:06:54;;;;;;;18.85;7.90;;;9.20;99.90;;;;;;5032719;28;20484;-77
2022/01/18 08:09:20;;;;;;;21.27;8.52;;;9.10;99.90;;;;;;5033639;28;20057;-77
2022/01/18 08:11:51;;;;;;;18.27;8.13;;;9.20;99.90;;;;;;5034187;28;20035;-77
2022/01/18 08:14:17;;;;;;;17.85;7.95;;;9.20;99.90;;;;;;5034167;28;20108;-78
2022/01/18 08:19:10;;;;;;;26.80;9.20;;;9.20;99.90;;;;;;5029712;28;20151;-78
2022/01/18 08:21:36;;;;;;;19.85;9.52;;;9.20;99.90;;;;;;5030476;28;20045;-77
2022/01/18 08:24:02;;;;;;;21.05;9.20;;;9.20;99.90;;;;;;5032194;28;20036;-74
2022/01/18 08:26:27;;;;;;;26.48;10.35;;;9.30;99.90;;;;;;5033782;28;20104;-76
2022/01/18 08:28:53;;;;;;;33.50;11.43;;;9.30;99.90;;;;;;5032528;28;20508;-75
2022/01/18 08:31:19;;;;;;;29.13;10.93;;;9.20;99.90;;;;;;5033350;28;20061;-74
2022/01/18 08:33:44;;;;;;;54.95;10.13;;;9.20;99.90;;;;;;5032723;28;20037;-76
2022/01/18 08:36:10;;;;;;;38.22;11.45;;;9.10;99.90;;;;;;5033228;28;20033;-75
2022/01/18 08:38:37;;;;;;;36.17;10.85;;;9.00;99.90;;;;;;5032738;28;20404;-76
2022/01/18 08:41:03;;;;;;;36.00;11.90;;;9.00;99.90;;;;;;5033214;28;20029;-75
2022/01/18 08:43:33;;;;;;;42.55;13.07;;;9.00;99.90;;;;;;5033625;28;20041;-76
2022/01/18 08:46:06;;;;;;;35.85;13.18;;;9.00;99.90;;;;;;5034108;28;20037;-75
2022/01/18 08:48:31;;;;;;;44.03;11.88;;;8.90;99.90;;;;;;5034141;28;20043;-73
2022/01/18 08:50:57;;;;;;;31.55;10.68;;;8.90;99.90;;;;;;5033103;28;20033;-74
2022/01/18 08:53:23;;;;;;;20.30;10.60;;;8.80;99.90;;;;;;5033195;28;20172;-75
2022/01/18 08:55:48;;;;;;;29.05;9.23;;;8.70;99.90;;;;;;5032685;28;20100;-75
2022/01/18 08:58:15;;;;;;;46.03;10.20;;;8.70;99.90;;;;;;5033053;28;20477;-76
2022/01/18 09:00:41;;;;;;;129.02;10.85;;;8.70;99.90;;;;;;5033136;28;20084;-76
2022/01/18 09:03:08;;;;;;;49.08;9.43;;;8.60;99.90;;;;;;5032954;28;20504;-74
2022/01/18 09:05:33;;;;;;;40.05;8.57;;;8.60;99.90;;;;;;5036518;28;20042;-74
2022/01/18 09:08:05;;;;;;;41.55;7.93;;;8.50;99.90;;;;;;5032973;28;20469;-77
2022/01/18 09:10:31;;;;;;;15.32;6.65;;;8.50;99.90;;;;;;5031716;28;20021;-76
2022/01/18 09:12:57;;;;;;;25.17;7.50;;;8.40;99.90;;;;;;5029920;28;20055;-77
2022/01/18 09:15:25;;;;;;;17.92;6.38;;;8.40;99.90;;;;;;5025485;28;20382;-74
2022/01/18 09:17:50;;;;;;;16.33;7.03;;;8.50;99.90;;;;;;5014080;28;20450;-74
2022/01/18 09:20:16;;;;;;;25.92;6.60;;;8.50;99.90;;;;;;5018716;28;20057;-74
2022/01/18 09:22:45;;;;;;;48.17;5.90;;;8.50;99.90;;;;;;5013133;28;20021;-74
2022/01/18 09:25:16;;;;;;;23.33;6.18;;;8.50;99.90;;;;;;5018281;28;20097;-76
2022/01/18 09:27:42;;;;;;;39.45;5.97;;;8.50;99.90;;;;;;5012761;28;20052;-75
2022/01/18 09:30:09;;;;;;;33.83;5.93;;;8.50;99.90;;;;;;5017728;28;20528;-76
2022/01/18 09:32:34;;;;;;;35.22;5.32;;;8.50;99.90;;;;;;5026469;28;20057;-78
2022/01/18 09:35:00;;;;;;;47.28;5.80;;;8.40;99.90;;;;;;5015241;28;20045;-79
2022/01/18 09:37:26;;;;;;;9.27;4.55;;;8.30;99.90;;;;;;5013220;28;20116;-79
2022/01/18 09:39:54;;;;;;;37.53;5.47;;;8.20;99.90;;;;;;5030945;28;20049;-79
2022/01/18 09:42:21;;;;;;;112.03;6.20;;;8.20;99.90;;;;;;5029407;28;20029;-79
2022/01/18 09:44:47;;;;;;;73.63;5.82;;;8.30;99.90;;;;;;5032598;28;20380;-78
2022/01/18 09:47:14;;;;;;;24.42;6.25;;;8.30;99.90;;;;;;5042692;28;20029;-77
2022/01/18 09:49:40;;;;;;;41.80;6.60;;;8.30;99.90;;;;;;5036274;28;20030;-77
2022/01/18 09:52:06;;;;;;;73.30;7.38;;;8.30;99.90;;;;;;5032093;28;20032;-78
2022/01/18 09:54:32;;;;;;;51.08;7.20;;;8.30;99.90;;;;;;5031705;28;20404;-78
2022/01/18 09:56:58;;;;;;;13.77;7.10;;;8.30;99.90;;;;;;5031365;28;20036;-75
2022/01/18 09:59:23;;;;;;;26.27;7.63;;;8.20;99.90;;;;;;5031370;28;20029;-75
2022/01/18 10:01:49;;;;;;;36.88;6.97;;;8.30;99.90;;;;;;5031442;28;20092;-77
2022/01/18 10:04:21;;;;;;;40.58;6.50;;;8.30;99.90;;;;;;5031072;28;20248;-73
2022/01/18 10:06:52;;;;;;;34.22;7.07;;;8.30;99.90;;;;;;5031018;28;20053;-76
2022/01/18 10:09:19;;;;;;;48.00;7.30;;;8.30;99.90;;;;;;5030918;28;20104;-76
2022/01/18 10:12:00;;;;;;;33.55;5.68;;;8.30;99.90;;;;;;5029260;28;20033;-76
2022/01/18 10:14:26;;;;;;;35.35;5.70;;;8.20;99.90;;;;;;5031246;28;20034;-76
2022/01/18 10:16:52;;;;;;;34.88;6.88;;;8.20;99.90;;;;;;5030749;28;20025;-76
2022/01/18 10:19:33;;;;;;;60.10;7.72;;;8.20;99.90;;;;;;5029796;28;20030;-76
2022/01/18 10:22:22;;;;;;;11.15;6.88;;;8.20;99.90;;;;;;5031390;28;20017;-76
2022/01/18 10:24:48;;;;;;;54.22;7.93;;;8.20;99.90;;;;;;5029440;28;20104;-75
2022/01/18 10:27:14;;;;;;;55.83;7.88;;;8.20;99.90;;;;;;5030847;28;20168;-76
2022/01/18 10:29:43;;;;;;;37.05;7.45;;;8.20;99.90;;;;;;5030376;28;20032;-76
2022/01/18 10:32:16;;;;;;;36.00;7.63;;;8.20;99.90;;;;;;5034499;28;20037;-76
2022/01/18 10:37:21;;;;;;;60.38;6.82;;;8.20;99.90;;;;;;5034533;28;20669;-75
2022/01/18 10:39:52;;;;;;;73.70;6.45;;;8.20;99.90;;;;;;5038796;28;20040;-74
2022/01/18 10:42:18;;;;;;;17.65;5.93;;;8.20;99.90;;;;;;5036006;28;20072;-74
2022/01/18 10:44:47;;;;;;;16.27;5.22;;;8.20;99.90;;;;;;5039100;28;20017;-74
2022/01/18 10:47:14;;;;;;;47.85;5.55;;;8.20;99.90;;;;;;5034982;28;20037;-74
2022/01/18 10:49:45;;;;;;;51.60;5.47;;;8.20;99.90;;;;;;5033588;28;20041;-74
2022/01/18 10:52:14;;;;;;;39.45;5.05;;;8.20;99.90;;;;;;5032429;28;20041;-74
2022/01/18 10:54:46;;;;;;;26.60;4.57;;;8.20;99.90;;;;;;5032858;28;20025;-74
2022/01/18 10:57:17;;;;;;;56.38;5.95;;;8.10;99.90;;;;;;5032530;28;20064;-75
2022/01/18 10:59:43;;;;;;;64.60;6.15;;;8.10;99.90;;;;;;5033402;28;21487;-75
2022/01/18 11:02:13;;;;;;;24.23;5.88;;;8.10;99.90;;;;;;5023898;28;20041;-75
2022/01/18 11:04:45;;;;;;;14.20;4.70;;;8.10;99.90;;;;;;5016214;28;20040;-74
2022/01/18 11:07:12;;;;;;;36.47;4.88;;;8.10;99.90;;;;;;5029741;28;20048;-74
2022/01/18 11:09:38;;;;;;;15.57;6.00;;;8.10;99.90;;;;;;5034148;28;20037;-74
2022/01/18 11:12:05;;;;;;;34.55;5.43;;;8.10;99.90;;;;;;5032788;28;20096;-74
2022/01/18 11:14:32;;;;;;;48.03;5.93;;;8.10;99.90;;;;;;5034078;28;20033;-76
2022/01/18 11:16:59;;;;;;;19.58;5.22;;;8.10;99.90;;;;;;5032052;28;20022;-73
2022/01/18 11:21:59;;;;;;;28.65;4.70;;;8.10;99.90;;;;;;5034172;28;20120;-75
2022/01/18 11:24:25;;;;;;;20.25;5.20;;;8.10;99.90;;;;;;5034585;28;20039;-76
2022/01/18 11:26:53;;;;;;;23.30;5.45;;;8.10;99.90;;;;;;5034276;28;20068;-77
2022/01/18 11:29:20;;;;;;;26.38;5.93;;;8.10;99.90;;;;;;5034769;28;20055;-78
2022/01/18 11:31:52;;;;;;;17.75;5.15;;;8.10;99.90;;;;;;5034345;28;20035;-78
2022/01/18 11:34:56;;;;;;;29.15;5.00;;;8.10;99.90;;;;;;5034146;28;20569;-77
2022/01/18 11:37:35;;;;;;;25.55;5.50;;;8.20;99.90;;;;;;5032590;28;20041;-77
2022/01/18 11:40:16;;;;;;;37.08;6.72;;;8.10;99.90;;;;;;5033722;28;20025;-77
2022/01/18 11:42:55;;;;;;;15.98;5.05;;;8.10;99.90;;;;;;5034867;28;20052;-76
2022/01/18 11:45:37;;;;;;;22.70;5.25;;;8.10;99.90;;;;;;5031875;28;20033;-76
2022/01/18 11:48:06;;;;;;;25.23;5.93;;;8.20;99.90;;;;;;5033348;28;20459;-78
2022/01/18 11:50:38;;;;;;;20.27;6.03;;;8.10;99.90;;;;;;5032470;28;20025;-78
2022/01/18 11:53:23;;;;;;;22.35;5.63;;;8.10;99.90;;;;;;5033750;28;20037;-78
2022/01/18 11:55:49;;;;;;;19.08;6.75;;;8.10;99.90;;;;;;5032929;28;20029;-79
2022/01/18 11:58:15;;;;;;;22.40;7.00;;;8.00;99.90;;;;;;5033430;28;20032;-77
2022/01/18 12:00:57;;;;;;;21.52;7.35;;;8.00;99.90;;;;;;5033780;28;20163;-78
2022/01/18 12:03:27;;;;;;;30.13;7.57;;;8.00;99.90;;;;;;5032902;28;20032;-77
2022/01/18 12:06:03;;;;;;;32.08;7.60;;;8.00;99.90;;;;;;5033494;28;20041;-77
2022/01/18 12:08:31;;;;;;;32.20;7.53;;;8.10;99.90;;;;;;5032409;28;20473;-77
2022/01/18 12:10:58;;;;;;;24.75;8.10;;;8.00;99.90;;;;;;5032973;28;20117;-77
2022/01/18 12:13:31;;;;;;;23.52;8.75;;;8.10;99.90;;;;;;5029840;28;20538;-77
2022/01/18 12:15:59;;;;;;;27.05;6.95;;;8.10;99.90;;;;;;5031777;28;20029;-78
2022/01/18 12:18:30;;;;;;;20.92;7.95;;;8.10;99.90;;;;;;5033047;28;20041;-77
2022/01/18 12:21:06;;;;;;;23.55;7.93;;;8.10;99.90;;;;;;5032458;28;20135;-77
2022/01/18 12:23:44;;;;;;;17.55;7.90;;;8.10;99.90;;;;;;5033167;28;20033;-75
2022/01/18 12:34:47;;;;;;;18.50;7.13;;;8.00;99.90;;;;;;5033056;28;20037;-74
2022/01/18 12:37:24;;;;;;;22.73;8.23;;;8.00;99.90;;;;;;5032780;28;20041;-73
2022/01/18 12:39:50;;;;;;;21.60;7.80;;;8.00;99.90;;;;;;5016324;28;20034;-74
2022/01/18 12:45:06;;;;;;;18.40;7.78;;;8.10;99.90;;;;;;5031867;28;20033;-74
2022/01/18 12:47:36;;;;;;;18.50;7.32;;;8.10;99.90;;;;;;5033742;28;20029;-74
2022/01/18 12:50:07;;;;;;;15.48;6.93;;;8.10;99.90;;;;;;5033458;28;20045;-74
2022/01/18 12:52:46;;;;;;;24.90;8.57;;;8.20;99.90;;;;;;5031549;28;20511;-74
2022/01/18 12:55:42;;;;;;;20.38;7.63;;;8.30;99.90;;;;;;5032471;28;20045;-73
2022/01/18 12:58:19;;;;;;;23.67;8.45;;;8.40;99.90;;;;;;5032650;28;20128;-75
2022/01/18 13:01:07;;;;;;;19.05;9.02;;;8.50;99.90;;;;;;5032298;28;20509;-75
2022/01/18 13:03:47;;;;;;;23.65;7.97;;;8.50;99.90;;;;;;5032423;28;20029;-74
2022/01/18 13:06:16;;;;;;;27.48;9.55;;;8.50;99.90;;;;;;5033654;28;20448;-75
2022/01/18 13:08:50;;;;;;;20.33;9.35;;;8.60;99.90;;;;;;5032715;28;20030;-74
2022/01/18 13:11:20;;;;;;;20.25;8.77;;;8.60;99.90;;;;;;5032018;28;20453;-74
2022/01/18 13:13:57;;;;;;;25.25;9.60;;;8.60;99.90;;;;;;5031704;28;20048;-73
2022/01/18 13:27:29;;;;;;;23.98;8.55;;;8.80;99.90;;;;;;5031579;28;20021;-77
2022/01/18 13:30:20;;;;;;;24.73;9.95;;;8.90;99.90;;;;;;5031746;28;20030;-76
2022/01/18 13:32:46;;;;;;;23.38;9.95;;;9.00;99.90;;;;;;5029320;28;20029;-73
2022/01/18 13:35:15;;;;;;;28.90;11.15;;;9.10;99.90;;;;;;5031610;28;20095;-73
2022/01/18 13:37:40;;;;;;;24.27;10.15;;;9.10;99.90;;;;;;5032431;28;20028;-72
2022/01/18 13:40:12;;;;;;;26.27;11.10;;;9.00;99.90;;;;;;5031681;28;20033;-72
2022/01/18 13:42:42;;;;;;;27.20;9.82;;;9.10;99.90;;;;;;5031283;28;20029;-72
2022/01/18 13:45:16;;;;;;;24.73;11.63;;;9.10;99.90;;;;;;5031650;28;20108;-73
2022/01/18 13:47:44;;;;;;;28.58;10.65;;;9.20;99.90;;;;;;5031244;28;20025;-73
2022/01/18 13:50:41;;;;;;;26.75;10.18;;;9.20;99.90;;;;;;5031568;28;20384;-72
2022/01/18 13:53:17;;;;;;;25.85;9.18;;;9.20;99.90;;;;;;5031001;28;20127;-72
2022/01/18 13:55:56;;;;;;;28.35;10.45;;;9.30;99.90;;;;;;5031847;28;20147;-73
2022/01/18 13:58:33;;;;;;;28.95;9.45;;;9.30;99.90;;;;;;5028716;28;20032;-72
2022/01/18 14:01:17;;;;;;;31.48;8.55;;;9.40;99.90;;;;;;5031320;28;20103;-75
2022/01/18 14:04:11;;;;;;;21.67;8.40;;;9.40;99.90;;;;;;5032349;28;20105;-75
2022/01/18 14:06:39;;;;;;;30.02;8.50;;;9.40;99.90;;;;;;5031659;28;20110;-74
2022/01/18 14:09:07;;;;;;;24.08;7.00;;;9.50;99.90;;;;;;5035355;28;20377;-73
2022/01/18 14:11:36;;;;;;;19.15;5.57;;;9.40;99.70;;;;;;5035099;28;20162;-72
2022/01/18 14:14:17;;;;;;;25.48;6.45;;;9.40;99.30;;;;;;5034412;28;20544;-73
2022/01/18 14:16:50;;;;;;;30.67;7.40;;;9.30;99.20;;;;;;5033785;28;20026;-73
2022/01/18 14:19:32;;;;;;;30.38;8.10;;;9.30;98.80;;;;;;5033367;28;20527;-73
2022/01/18 14:22:00;;;;;;;27.08;7.82;;;9.20;99.00;;;;;;5031605;28;20362;-73
2022/01/18 14:24:34;;;;;;;27.83;7.50;;;9.20;99.00;;;;;;5034022;28;20473;-73